Terminal Aerodrome Forecast
Issued by NWS

Home | Current Version | Previous Version | Text Only | Print | Product List | Glossary On
Versions: 1 2 3 4 5 6 7 8 9 10 11 12 13 14 15 16
285
FTUS44 KTSA 082320
TAFBVO
TAF
KBVO 082320Z 0900/0924 VRB04KT P6SM SKC
     FM091500 13007KT P6SM SCT080=

USA.gov is the U.S. government's official web portal to all federal, state and local government web resources and services.